createdAt,value
2023-01-05T00:01:12.882Z,81.60
2023-01-05T00:03:41.008Z,81.50
2023-01-05T00:06:13.609Z,81.40
2023-01-05T00:08:42.097Z,81.80
2023-01-05T00:11:30.756Z,82.40
2023-01-05T00:14:16.213Z,83.00
2023-01-05T00:17:01.870Z,83.20
2023-01-05T00:19:47.639Z,83.60
2023-01-05T00:22:34.635Z,84.20
2023-01-05T00:25:11.283Z,83.80
2023-01-05T00:27:40.837Z,84.00
2023-01-05T00:30:10.288Z,83.50
2023-01-05T00:32:38.325Z,83.90
2023-01-05T00:35:07.240Z,85.40
2023-01-05T00:37:38.139Z,86.20
2023-01-05T00:40:07.476Z,86.10
2023-01-05T00:42:35.466Z,87.00
2023-01-05T00:45:03.321Z,87.30
2023-01-05T00:47:31.149Z,87.00
2023-01-05T00:49:58.942Z,87.10
2023-01-05T00:52:26.830Z,86.60
2023-01-05T00:54:56.079Z,85.30
2023-01-05T00:57:23.993Z,85.30
2023-01-05T00:59:51.818Z,85.50
2023-01-05T01:02:19.865Z,87.20
2023-01-05T01:04:47.981Z,88.90
2023-01-05T01:07:15.775Z,90.20
2023-01-05T01:09:43.655Z,91.90
2023-01-05T01:12:12.844Z,93.20
2023-01-05T01:14:40.975Z,95.40
2023-01-05T01:17:08.757Z,95.10
2023-01-05T01:19:36.580Z,96.50
2023-01-05T01:22:04.359Z,98.00
2023-01-05T01:24:32.262Z,98.60
2023-01-05T01:27:00.086Z,99.90
2023-01-05T01:29:29.639Z,99.90
2023-01-05T01:31:57.936Z,99.90
2023-01-05T01:34:25.767Z,99.90
2023-01-05T01:36:56.467Z,99.90
2023-01-05T01:39:24.551Z,99.90
2023-01-05T01:41:52.403Z,99.90
2023-01-05T01:44:57.249Z,99.90
2023-01-05T01:47:32.023Z,99.90
2023-01-05T01:50:02.564Z,99.90
2023-01-05T01:52:31.623Z,99.90
2023-01-05T01:55:00.120Z,99.90
2023-01-05T01:57:29.758Z,99.90
2023-01-05T02:00:01.333Z,99.90
2023-01-05T02:02:30.443Z,99.90
2023-01-05T02:05:03.504Z,99.90
2023-01-05T02:07:34.496Z,99.90
2023-01-05T02:10:03.613Z,99.90
2023-01-05T02:12:40.715Z,99.90
2023-01-05T02:15:22.855Z,99.90
2023-01-05T02:18:07.812Z,99.90
2023-01-05T02:20:55.170Z,99.90
2023-01-05T02:24:14.181Z,99.90
2023-01-05T02:27:25.704Z,99.90
2023-01-05T02:30:46.294Z,99.90
2023-01-05T02:33:25.824Z,99.90
2023-01-05T02:35:59.614Z,97.90
2023-01-05T02:38:35.163Z,98.20
2023-01-05T02:41:08.869Z,97.10
2023-01-05T02:43:36.906Z,95.80
2023-01-05T02:46:04.790Z,95.70
2023-01-05T02:48:34.744Z,95.40
2023-01-05T02:51:06.552Z,96.00
2023-01-05T02:53:38.348Z,95.40
2023-01-05T02:56:11.544Z,95.30
2023-01-05T02:58:42.705Z,94.90
2023-01-05T03:01:13.678Z,94.30
2023-01-05T03:03:47.705Z,92.90
2023-01-05T03:06:21.290Z,92.50
2023-01-05T03:08:52.431Z,92.70
2023-01-05T03:11:37.879Z,92.10
2023-01-05T03:14:11.975Z,92.20
2023-01-05T03:16:40.741Z,92.00
2023-01-05T03:19:31.444Z,91.90
2023-01-05T03:22:19.971Z,91.50
2023-01-05T03:25:06.452Z,91.40
2023-01-05T03:27:52.067Z,90.60
2023-01-05T03:30:38.061Z,90.00
2023-01-05T03:33:34.311Z,90.00
2023-01-05T03:36:07.259Z,89.90
2023-01-05T03:38:39.878Z,89.60
2023-01-05T03:41:10.301Z,89.70
2023-01-05T03:43:38.746Z,89.30
2023-01-05T03:46:12.475Z,89.60
2023-01-05T03:48:40.432Z,89.70
2023-01-05T03:51:10.050Z,89.70
2023-01-05T03:53:37.936Z,90.30
2023-01-05T03:56:06.247Z,89.70
2023-01-05T03:58:34.029Z,90.00
2023-01-05T04:01:02.077Z,90.00
2023-01-05T04:03:32.206Z,90.30
2023-01-05T04:06:00.675Z,90.40
2023-01-05T04:08:29.845Z,90.60
2023-01-05T04:10:57.714Z,91.20
2023-01-05T04:13:26.016Z,92.20
2023-01-05T04:15:53.835Z,92.50
2023-01-05T04:18:21.693Z,93.40
2023-01-05T04:20:49.489Z,93.00
2023-01-05T04:23:17.297Z,92.90
2023-01-05T04:25:47.590Z,93.10
2023-01-05T04:28:15.396Z,92.80
2023-01-05T04:30:44.329Z,93.30
2023-01-05T04:33:12.658Z,93.00
2023-01-05T04:35:40.486Z,93.00
2023-01-05T04:38:08.399Z,92.80
2023-01-05T04:40:36.198Z,91.90
2023-01-05T04:43:05.797Z,92.20
2023-01-05T04:45:34.184Z,93.20
2023-01-05T04:48:01.993Z,92.50
2023-01-05T04:50:29.802Z,92.30
2023-01-05T04:52:57.691Z,91.60
2023-01-05T04:55:25.648Z,91.20
2023-01-05T04:57:53.489Z,91.60
2023-01-05T05:00:22.911Z,92.70
2023-01-05T05:02:50.943Z,92.80
2023-01-05T05:05:18.903Z,93.30
2023-01-05T05:07:46.695Z,93.40
2023-01-05T05:10:17.861Z,93.40
2023-01-05T05:12:46.005Z,93.80
2023-01-05T05:15:13.888Z,94.60
2023-01-05T05:17:43.092Z,94.90
2023-01-05T05:20:11.994Z,96.00
2023-01-05T05:22:39.837Z,96.40
2023-01-05T05:25:08.678Z,96.30
2023-01-05T05:27:36.571Z,96.00
2023-01-05T05:30:05.180Z,95.70
2023-01-05T05:32:33.017Z,95.30
2023-01-05T05:35:02.140Z,95.10
2023-01-05T05:37:29.950Z,95.20
2023-01-05T05:39:57.766Z,94.70
2023-01-05T05:42:25.564Z,94.70
2023-01-05T05:44:53.359Z,94.40
2023-01-05T05:47:21.229Z,94.60
2023-01-05T05:49:49.070Z,95.00
2023-01-05T05:52:18.230Z,95.50
2023-01-05T05:54:46.016Z,95.80
2023-01-05T05:57:13.900Z,95.90
2023-01-05T05:59:41.740Z,96.10
2023-01-05T06:02:09.744Z,95.80
2023-01-05T06:04:37.671Z,96.10
2023-01-05T06:07:05.498Z,95.90
2023-01-05T06:09:34.663Z,95.20
2023-01-05T06:12:02.539Z,94.40
2023-01-05T06:14:30.700Z,94.00
2023-01-05T06:16:58.487Z,92.70
2023-01-05T06:19:26.327Z,92.60
2023-01-05T06:21:54.111Z,92.80
2023-01-05T06:24:21.921Z,92.50
2023-01-05T06:26:51.052Z,92.60
2023-01-05T06:29:18.964Z,92.90
2023-01-05T06:31:46.804Z,91.60
2023-01-05T06:34:14.724Z,91.70
2023-01-05T06:36:42.547Z,91.40
2023-01-05T06:39:10.427Z,91.10
2023-01-05T06:41:38.231Z,91.40
2023-01-05T06:44:08.067Z,91.50
2023-01-05T06:46:35.953Z,91.50
2023-01-05T06:49:05.028Z,91.40
2023-01-05T06:51:32.943Z,91.00
2023-01-05T06:54:00.753Z,89.30
2023-01-05T06:56:28.566Z,89.30
2023-01-05T06:58:56.392Z,89.50
2023-01-05T07:01:25.637Z,89.20
2023-01-05T07:03:53.578Z,88.40
2023-01-05T07:06:21.449Z,85.70
2023-01-05T07:08:49.273Z,86.30
2023-01-05T07:11:17.128Z,85.60
2023-01-05T07:13:48.975Z,85.90
2023-01-05T07:16:16.837Z,86.00
2023-01-05T07:18:46.069Z,86.40
2023-01-05T07:21:13.995Z,84.40
2023-01-05T07:23:41.804Z,82.70
2023-01-05T07:26:10.874Z,82.50
2023-01-05T07:28:39.119Z,82.90
2023-01-05T07:31:08.327Z,82.90
2023-01-05T07:33:40.001Z,82.80
2023-01-05T07:36:10.652Z,83.40
2023-01-05T07:38:38.800Z,82.80
2023-01-05T07:41:06.771Z,82.20
2023-01-05T07:43:35.624Z,82.90
2023-01-05T07:46:04.716Z,83.00
2023-01-05T07:48:32.584Z,82.40
2023-01-05T07:51:02.421Z,82.40
2023-01-05T07:53:38.157Z,82.40
2023-01-05T07:56:12.830Z,82.50
2023-01-05T07:58:40.674Z,82.60
2023-01-05T08:01:10.939Z,82.60
2023-01-05T08:03:39.122Z,81.90
2023-01-05T08:06:08.885Z,81.50
2023-01-05T08:08:38.052Z,81.50
2023-01-05T08:11:05.352Z,81.70
2023-01-05T08:14:28.927Z,81.70
2023-01-05T08:16:56.772Z,82.30
2023-01-05T08:19:24.644Z,82.00
2023-01-05T08:21:52.376Z,82.60
2023-01-05T08:24:21.635Z,82.90
2023-01-05T08:26:50.806Z,82.60
2023-01-05T08:29:18.702Z,82.80
2023-01-05T08:31:46.511Z,83.20
2023-01-05T08:34:14.737Z,83.50
2023-01-05T08:36:42.564Z,83.70
2023-01-05T08:39:12.071Z,84.60
2023-01-05T08:41:42.099Z,86.40
2023-01-05T08:44:13.998Z,87.30
2023-01-05T08:46:41.862Z,87.20
2023-01-05T08:49:10.427Z,87.40
2023-01-05T08:51:38.939Z,87.50
2023-01-05T08:54:06.927Z,88.10
2023-01-05T08:56:38.562Z,88.70
2023-01-05T08:59:08.987Z,88.50
2023-01-05T09:01:37.807Z,88.90
2023-01-05T09:04:05.998Z,88.70
2023-01-05T09:06:33.829Z,89.40
2023-01-05T09:09:01.625Z,89.20
2023-01-05T09:11:29.424Z,88.50
2023-01-05T09:13:58.853Z,86.90
2023-01-05T09:19:17.882Z,86.90
2023-01-05T09:21:45.777Z,86.90
2023-01-05T09:24:13.852Z,86.50
2023-01-05T09:26:42.579Z,87.50
2023-01-05T09:29:10.720Z,86.90
2023-01-05T09:31:41.338Z,86.40
2023-01-05T09:34:09.194Z,86.50
2023-01-05T09:36:38.633Z,86.90
2023-01-05T09:39:07.033Z,85.60
2023-01-05T09:41:37.815Z,85.60
2023-01-05T09:44:11.928Z,85.50
2023-01-05T09:46:44.618Z,86.30
2023-01-05T09:49:15.716Z,87.30
2023-01-05T09:51:43.919Z,87.30
2023-01-05T09:54:16.518Z,86.90
2023-01-05T09:59:37.972Z,85.90
2023-01-05T10:02:17.248Z,84.40
2023-01-05T10:04:45.340Z,83.00
2023-01-05T10:07:21.165Z,81.20
2023-01-05T10:09:49.481Z,80.40
2023-01-05T10:12:41.054Z,80.50
2023-01-05T10:15:13.442Z,79.70
2023-01-05T10:17:44.707Z,80.00
2023-01-05T10:20:18.932Z,79.20
2023-01-05T10:22:58.840Z,78.90
2023-01-05T10:25:35.415Z,79.10
2023-01-05T10:28:16.222Z,78.20
2023-01-05T10:30:55.895Z,78.80
2023-01-05T10:33:41.505Z,78.10
2023-01-05T10:37:06.639Z,79.00
2023-01-05T10:39:30.265Z,78.90
2023-01-05T10:42:05.443Z,77.50
2023-01-05T10:44:52.787Z,77.40
2023-01-05T10:47:22.475Z,76.40
2023-01-05T10:49:51.900Z,76.50
2023-01-05T10:52:21.758Z,76.70
2023-01-05T10:54:51.941Z,76.90
2023-01-05T10:57:40.809Z,76.10
2023-01-05T11:00:15.481Z,75.50
2023-01-05T11:02:48.102Z,75.40
2023-01-05T11:05:31.568Z,74.70
2023-01-05T11:08:02.230Z,74.60
2023-01-05T11:10:32.583Z,74.60
2023-01-05T11:13:06.456Z,75.00
2023-01-05T11:15:43.667Z,73.80
2023-01-05T11:18:25.394Z,74.30
2023-01-05T11:21:18.089Z,73.60
2023-01-05T11:23:47.762Z,73.80
2023-01-05T11:26:31.277Z,74.40
2023-01-05T11:29:14.096Z,75.10
2023-01-05T11:31:49.154Z,74.00
2023-01-05T11:34:27.463Z,73.40
2023-01-05T11:37:03.936Z,73.30
2023-01-05T11:39:36.532Z,73.90
2023-01-05T11:42:14.330Z,73.50
2023-01-05T11:44:47.391Z,73.20
2023-01-05T11:47:23.083Z,73.30
2023-01-05T11:49:58.792Z,72.80
2023-01-05T11:52:34.631Z,72.70
2023-01-05T11:55:30.287Z,71.70
2023-01-05T11:58:21.420Z,72.40
2023-01-05T12:01:49.562Z,71.10
2023-01-05T12:04:40.328Z,71.50
2023-01-05T12:07:22.839Z,70.80
2023-01-05T12:09:59.356Z,71.50
2023-01-05T12:12:47.202Z,70.90
2023-01-05T12:15:38.447Z,72.40
2023-01-05T12:18:20.117Z,72.00
2023-01-05T12:21:05.377Z,71.90
2023-01-05T12:24:06.449Z,72.30
2023-01-05T12:26:42.113Z,71.20
2023-01-05T12:35:50.123Z,72.10
2023-01-05T12:38:31.826Z,70.00
2023-01-05T12:41:24.497Z,70.30
2023-01-05T12:44:06.599Z,70.70
2023-01-05T12:46:50.635Z,70.80
2023-01-05T12:49:22.582Z,70.60
2023-01-05T12:51:59.814Z,71.10
2023-01-05T12:54:37.579Z,71.40
2023-01-05T12:57:10.215Z,71.70
2023-01-05T12:59:44.980Z,71.70
2023-01-05T13:02:23.621Z,71.60
2023-01-05T13:04:56.751Z,72.60
2023-01-05T13:07:31.091Z,72.50
2023-01-05T13:10:03.667Z,72.80
2023-01-05T13:12:33.137Z,71.90
2023-01-05T13:15:14.222Z,71.40
2023-01-05T13:17:46.764Z,72.10
2023-01-05T13:20:34.387Z,72.60
2023-01-05T13:23:06.177Z,73.00
2023-01-05T13:25:41.380Z,72.30
2023-01-05T13:28:21.403Z,72.20
2023-01-05T13:31:10.818Z,72.30
2023-01-05T13:33:49.790Z,72.10
2023-01-05T13:36:33.698Z,72.60
2023-01-05T13:39:31.812Z,73.30
2023-01-05T13:42:26.823Z,74.30
2023-01-05T13:45:12.553Z,73.60
2023-01-05T13:47:57.207Z,73.50
2023-01-05T13:51:01.063Z,73.40
2023-01-05T13:53:30.835Z,73.60
2023-01-05T13:56:02.935Z,73.90
2023-01-05T13:58:40.709Z,74.20
2023-01-05T14:01:11.342Z,73.90
2023-01-05T14:03:42.739Z,74.40
2023-01-05T14:06:19.339Z,74.30
2023-01-05T14:08:53.400Z,74.40
2023-01-05T14:11:24.215Z,74.60
2023-01-05T14:13:54.636Z,74.40
2023-01-05T14:16:53.726Z,74.90
2023-01-05T14:19:25.693Z,75.40
2023-01-05T14:22:25.380Z,75.60
2023-01-05T14:24:54.896Z,75.80
2023-01-05T14:27:24.759Z,75.80
2023-01-05T14:30:24.105Z,76.40
2023-01-05T14:32:55.779Z,76.80
2023-01-05T14:35:31.584Z,76.50
2023-01-05T14:38:02.335Z,76.70
2023-01-05T14:40:35.267Z,76.70
2023-01-05T14:43:06.240Z,76.70
2023-01-05T14:45:37.049Z,76.50
2023-01-05T14:48:08.820Z,76.40
2023-01-05T14:50:40.845Z,76.60
2023-01-05T14:53:14.520Z,77.10
2023-01-05T14:56:08.007Z,77.00
2023-01-05T14:59:02.841Z,77.30
2023-01-05T15:01:36.606Z,77.50
2023-01-05T15:04:09.713Z,77.40
2023-01-05T15:06:57.017Z,77.90
2023-01-05T15:10:06.319Z,78.00
2023-01-05T15:13:03.281Z,78.20
2023-01-05T15:15:44.418Z,78.50
2023-01-05T15:18:42.009Z,78.60
2023-01-05T15:21:24.295Z,79.00
2023-01-05T15:24:28.785Z,79.10
2023-01-05T15:27:19.857Z,79.50
2023-01-05T15:30:16.313Z,79.50
2023-01-05T15:32:45.815Z,79.90
2023-01-05T15:35:17.688Z,79.80
2023-01-05T15:37:47.198Z,79.80
2023-01-05T15:40:31.699Z,79.80
2023-01-05T15:43:03.255Z,80.00
2023-01-05T15:45:33.289Z,80.30
2023-01-05T15:48:09.330Z,80.60
2023-01-05T15:50:44.896Z,80.70
2023-01-05T15:53:24.632Z,81.10
2023-01-05T15:55:53.789Z,81.30
2023-01-05T15:58:23.978Z,81.70
2023-01-05T16:01:03.176Z,82.20
2023-01-05T16:03:32.760Z,82.40
2023-01-05T16:06:03.484Z,82.70
2023-01-05T16:08:32.864Z,82.80
2023-01-05T16:11:06.010Z,82.90
2023-01-05T16:13:38.976Z,82.90
2023-01-05T16:16:24.762Z,82.80
2023-01-05T16:19:03.201Z,82.90
2023-01-05T16:21:36.356Z,82.90
2023-01-05T16:24:08.092Z,83.00
2023-01-05T16:26:38.094Z,83.10
2023-01-05T16:29:20.902Z,82.80
2023-01-05T16:31:55.044Z,83.10
2023-01-05T16:34:27.363Z,83.40
2023-01-05T16:37:03.253Z,83.30
2023-01-05T16:39:37.562Z,83.40
2023-01-05T16:42:39.692Z,83.50
2023-01-05T16:45:19.682Z,83.60
2023-01-05T16:47:48.070Z,84.20
2023-01-05T16:50:53.116Z,84.50
2023-01-05T16:53:23.242Z,84.90
2023-01-05T16:55:55.108Z,84.90
2023-01-05T16:58:38.122Z,85.20
2023-01-05T17:01:26.814Z,85.50
2023-01-05T17:03:55.086Z,85.80
2023-01-05T17:06:26.661Z,86.10
2023-01-05T17:08:55.890Z,86.10
2023-01-05T17:11:24.706Z,86.40
2023-01-05T17:13:55.267Z,86.50
2023-01-05T17:16:23.501Z,86.50
2023-01-05T17:18:51.352Z,86.60
2023-01-05T17:21:22.392Z,86.50
2023-01-05T17:23:52.064Z,86.60
2023-01-05T17:26:24.360Z,86.00
2023-01-05T17:28:59.518Z,85.80
2023-01-05T17:31:27.643Z,85.50
2023-01-05T17:33:55.781Z,85.30
2023-01-05T17:36:28.013Z,85.30
2023-01-05T17:38:55.880Z,85.30
2023-01-05T17:41:23.698Z,85.30
2023-01-05T17:43:52.899Z,85.30
2023-01-05T17:46:25.383Z,85.30
2023-01-05T17:48:53.231Z,85.30
2023-01-05T17:51:21.111Z,85.00
2023-01-05T17:53:48.910Z,84.90
2023-01-05T17:56:18.620Z,84.80
2023-01-05T17:58:47.873Z,84.60
2023-01-05T18:01:17.437Z,84.50
2023-01-05T18:03:45.303Z,84.40
2023-01-05T18:06:13.107Z,84.40
2023-01-05T18:11:14.265Z,84.60
2023-01-05T18:16:12.882Z,84.60
2023-01-05T18:18:42.615Z,84.60
2023-01-05T18:21:10.502Z,84.60
2023-01-05T18:23:38.376Z,84.50
2023-01-05T18:26:08.418Z,84.50
2023-01-05T18:28:36.979Z,84.50
2023-01-05T18:31:11.486Z,84.50
2023-01-05T18:33:39.393Z,84.50
2023-01-05T18:36:10.104Z,84.60
2023-01-05T18:38:38.693Z,84.80
2023-01-05T18:41:07.608Z,85.00
2023-01-05T18:43:35.572Z,85.30
2023-01-05T18:46:03.703Z,85.50
2023-01-05T18:48:32.257Z,85.50
2023-01-05T18:51:00.159Z,85.50
2023-01-05T18:53:29.264Z,85.40
2023-01-05T18:55:57.116Z,85.50
2023-01-05T18:58:24.887Z,85.30
2023-01-05T19:00:52.881Z,85.30
2023-01-05T19:03:20.711Z,85.20
2023-01-05T19:05:48.558Z,85.00
2023-01-05T19:08:16.363Z,85.20
2023-01-05T19:10:45.526Z,85.20
2023-01-05T19:13:13.297Z,85.30
2023-01-05T19:15:41.185Z,85.20
2023-01-05T19:18:09.260Z,84.80
2023-01-05T19:20:37.525Z,84.80
2023-01-05T19:23:05.337Z,84.50
2023-01-05T19:25:33.116Z,84.30
2023-01-05T19:28:02.617Z,84.30
2023-01-05T19:30:31.178Z,84.10
2023-01-05T19:32:58.912Z,84.00
2023-01-05T19:35:28.347Z,83.80
2023-01-05T19:37:57.021Z,83.90
2023-01-05T19:40:25.344Z,84.00
2023-01-05T19:42:53.231Z,84.20
2023-01-05T19:45:22.432Z,84.20
2023-01-05T19:47:50.212Z,84.10
2023-01-05T19:50:18.107Z,84.40
2023-01-05T19:52:45.964Z,84.40
2023-01-05T19:55:13.751Z,84.50
2023-01-05T19:57:41.562Z,84.40
2023-01-05T20:00:10.447Z,84.30
2023-01-05T20:02:41.938Z,84.40
2023-01-05T20:05:10.637Z,84.20
2023-01-05T20:07:41.441Z,83.10
2023-01-05T20:10:10.394Z,82.50
2023-01-05T20:12:38.156Z,82.40
2023-01-05T20:15:06.590Z,82.40
2023-01-05T20:17:36.218Z,82.70
2023-01-05T20:20:05.962Z,83.90
2023-01-05T20:22:33.830Z,84.80
2023-01-05T20:25:01.629Z,85.10
2023-01-05T20:27:29.508Z,85.60
2023-01-05T20:29:57.289Z,85.90
2023-01-05T20:32:27.357Z,86.60
2023-01-05T20:34:59.172Z,87.50
2023-01-05T20:37:29.569Z,87.10
2023-01-05T20:39:58.443Z,86.30
2023-01-05T20:42:26.715Z,86.10
2023-01-05T20:44:54.792Z,85.70
2023-01-05T20:47:22.667Z,85.20
2023-01-05T20:49:50.560Z,85.60
2023-01-05T20:52:18.555Z,85.90
2023-01-05T20:54:49.526Z,86.50
2023-01-05T20:57:17.396Z,87.50
2023-01-05T20:59:45.166Z,87.80
2023-01-05T21:02:23.582Z,87.20
2023-01-05T21:04:52.827Z,87.80
2023-01-05T21:07:21.082Z,89.30
2023-01-05T21:09:51.159Z,90.70
2023-01-05T21:12:19.564Z,91.50
2023-01-05T21:14:47.561Z,92.10
2023-01-05T21:17:15.422Z,90.70
2023-01-05T21:19:43.309Z,89.70
2023-01-05T21:22:11.216Z,89.20
2023-01-05T21:24:39.075Z,88.00
2023-01-05T21:27:08.272Z,88.10
2023-01-05T21:29:36.222Z,87.50
2023-01-05T21:32:04.112Z,87.30
2023-01-05T21:34:31.910Z,87.00
2023-01-05T21:37:02.118Z,87.00
2023-01-05T21:39:29.952Z,86.60
2023-01-05T21:42:15.352Z,85.90
2023-01-05T21:44:44.527Z,85.70
2023-01-05T21:47:12.790Z,85.10
2023-01-05T21:49:40.586Z,85.00
2023-01-05T21:52:25.740Z,85.00
2023-01-05T21:55:11.190Z,84.70
2023-01-05T21:57:39.106Z,85.00
2023-01-05T22:00:09.678Z,85.20
2023-01-05T22:02:37.621Z,85.90
2023-01-05T22:05:06.305Z,86.30
2023-01-05T22:07:34.156Z,86.20
2023-01-05T22:10:02.014Z,86.60
2023-01-05T22:12:29.775Z,87.40
2023-01-05T22:14:58.173Z,87.80
2023-01-05T22:17:27.409Z,88.40
2023-01-05T22:19:55.237Z,88.40
2023-01-05T22:22:23.643Z,88.20
2023-01-05T22:24:51.408Z,88.60
2023-01-05T22:27:19.386Z,87.70
2023-01-05T22:29:47.153Z,87.70
2023-01-05T22:32:14.996Z,88.00
2023-01-05T22:34:46.318Z,88.10
2023-01-05T22:37:16.014Z,88.20
2023-01-05T22:39:43.888Z,88.90
2023-01-05T22:42:11.714Z,89.60
2023-01-05T22:44:39.481Z,89.90
2023-01-05T22:47:07.230Z,90.20
2023-01-05T22:49:34.968Z,90.20
2023-01-05T22:52:04.337Z,90.70
2023-01-05T22:54:32.862Z,91.50
2023-01-05T22:57:00.643Z,92.10
2023-01-05T22:59:28.739Z,92.20
2023-01-05T23:01:56.631Z,92.50
2023-01-05T23:04:24.523Z,92.40
2023-01-05T23:06:52.327Z,92.80
2023-01-05T23:09:21.542Z,93.10
2023-01-05T23:11:49.363Z,92.70
2023-01-05T23:14:18.936Z,93.10
2023-01-05T23:16:47.410Z,93.20
2023-01-05T23:19:16.747Z,92.90
2023-01-05T23:21:44.896Z,92.40
2023-01-05T23:24:13.225Z,93.30
2023-01-05T23:26:42.345Z,92.70
2023-01-05T23:29:10.128Z,93.20
2023-01-05T23:31:37.910Z,93.60
2023-01-05T23:34:05.734Z,93.50
2023-01-05T23:36:33.467Z,93.60
2023-01-05T23:39:01.232Z,94.10
2023-01-05T23:41:28.983Z,94.30
2023-01-05T23:43:58.088Z,94.90
2023-01-05T23:46:25.927Z,94.10
2023-01-05T23:48:53.926Z,93.90
2023-01-05T23:51:22.091Z,93.50
2023-01-05T23:53:52.206Z,93.40
2023-01-05T23:56:23.752Z,93.10
2023-01-05T23:58:57.169Z,93.10
